Time;durP1;ratioP1;P1;durP2;ratioP2;P2;SDS_P1;SDS_P2;PMS_P1;PMS_P2;Temp;Humidity;BMP_temperature;BMP_pressure;BME280_temperature;BME280_humidity;BME280_pressure;Samples;Min_cycle;Max_cycle;Signal;HPM_P1;HPM_P2
2024/01/17 00:00:49;;;;;;;6.70;5.18;;;3.40;97.60;;;;;;4986504;28;20304;-38
2024/01/17 00:03:15;;;;;;;8.43;6.22;;;3.40;97.60;;;;;;5026813;28;20189;-36
2024/01/17 00:05:41;;;;;;;6.80;5.70;;;3.40;97.60;;;;;;5024036;28;21192;-36
2024/01/17 00:08:09;;;;;;;7.57;5.82;;;3.40;97.60;;;;;;5025580;28;20510;-34
2024/01/17 00:10:35;;;;;;;9.27;6.07;;;3.40;97.60;;;;;;5008842;28;20796;-37
2024/01/17 00:13:04;;;;;;;6.82;5.35;;;3.40;97.60;;;;;;5006599;28;20462;-33
2024/01/17 00:15:30;;;;;;;7.57;5.32;;;3.30;97.60;;;;;;5007059;28;20201;-37
2024/01/17 00:17:57;;;;;;;6.95;5.18;;;3.40;97.70;;;;;;4987263;28;21005;-39
2024/01/17 00:20:25;;;;;;;7.57;5.75;;;3.30;97.60;;;;;;5021583;28;20299;-36
2024/01/17 00:22:51;;;;;;;9.50;6.10;;;3.30;97.70;;;;;;5022421;28;21094;-37
2024/01/17 00:25:17;;;;;;;10.75;6.65;;;3.30;97.60;;;;;;5021443;28;21316;-38
2024/01/17 00:27:43;;;;;;;9.13;6.38;;;3.30;97.70;;;;;;4990624;28;20659;-38
2024/01/17 00:30:12;;;;;;;9.55;5.60;;;3.20;97.70;;;;;;5005030;28;20213;-39
2024/01/17 00:32:40;;;;;;;10.30;6.20;;;3.20;97.60;;;;;;5020474;28;20224;-38
2024/01/17 00:35:08;;;;;;;9.43;6.30;;;3.20;97.60;;;;;;5020600;28;20255;-40
2024/01/17 00:37:34;;;;;;;14.25;5.75;;;3.30;97.60;;;;;;5020055;28;20194;-36
2024/01/17 00:40:00;;;;;;;6.82;6.07;;;3.30;97.60;;;;;;5005435;28;20258;-39
2024/01/17 00:42:27;;;;;;;9.70;6.90;;;3.30;97.50;;;;;;4993175;28;20225;-32
2024/01/17 00:44:53;;;;;;;7.32;5.90;;;3.30;97.60;;;;;;5021715;28;20455;-37
2024/01/17 00:47:20;;;;;;;8.15;5.30;;;3.20;97.50;;;;;;5021623;28;20240;-38
2024/01/17 00:49:48;;;;;;;8.52;6.55;;;3.30;97.50;;;;;;5026373;28;20226;-39
2024/01/17 00:52:16;;;;;;;9.27;6.47;;;3.30;97.50;;;;;;4986231;28;20755;-37
2024/01/17 00:54:43;;;;;;;8.13;6.18;;;3.30;97.50;;;;;;5000613;28;20863;-37
2024/01/17 00:57:11;;;;;;;8.63;5.85;;;3.20;97.50;;;;;;5022732;28;20703;-36
2024/01/17 00:59:41;;;;;;;10.13;6.90;;;3.20;97.50;;;;;;5018457;28;20308;-39
2024/01/17 01:02:07;;;;;;;9.80;6.75;;;3.20;97.50;;;;;;5021980;28;20184;-38
2024/01/17 01:04:34;;;;;;;8.52;5.50;;;3.20;97.80;;;;;;5019734;28;20217;-37
2024/01/17 01:07:00;;;;;;;7.75;5.72;;;3.20;97.50;;;;;;5021217;28;20185;-39
2024/01/17 01:09:26;;;;;;;7.70;6.00;;;3.20;97.60;;;;;;5005063;28;20212;-36
2024/01/17 01:11:54;;;;;;;7.20;5.60;;;3.20;97.60;;;;;;5021350;28;20458;-36
2024/01/17 01:14:20;;;;;;;8.13;5.63;;;3.20;97.50;;;;;;5002279;28;20222;-36
2024/01/17 01:16:46;;;;;;;8.63;6.10;;;3.20;97.50;;;;;;5020955;28;20577;-39
2024/01/17 01:19:12;;;;;;;9.25;5.88;;;3.20;97.50;;;;;;5019646;28;20216;-39
2024/01/17 01:21:38;;;;;;;8.80;5.23;;;3.20;97.50;;;;;;5021473;28;20216;-40
2024/01/17 01:24:06;;;;;;;9.77;6.82;;;3.20;97.40;;;;;;5000779;28;20460;-34
2024/01/17 01:26:32;;;;;;;9.15;5.90;;;3.20;97.50;;;;;;5018838;28;20622;-35
2024/01/17 01:28:58;;;;;;;6.20;5.43;;;3.20;97.50;;;;;;5017878;28;20287;-38
2024/01/17 01:31:26;;;;;;;7.05;5.88;;;3.10;97.40;;;;;;5024969;28;20188;-33
2024/01/17 01:33:52;;;;;;;6.97;6.03;;;3.10;97.40;;;;;;4966221;28;20217;-32
2024/01/17 01:36:19;;;;;;;8.90;6.33;;;3.20;97.50;;;;;;4980063;28;20584;-40
2024/01/17 01:38:45;;;;;;;10.07;5.90;;;3.10;97.50;;;;;;4997977;28;20448;-38
2024/01/17 01:41:13;;;;;;;6.37;5.43;;;3.10;97.50;;;;;;4985855;28;20276;-37
2024/01/17 01:43:41;;;;;;;10.15;6.03;;;3.10;97.40;;;;;;4979750;28;20444;-39
2024/01/17 01:46:23;;;;;;;9.98;5.95;;;3.10;97.50;;;;;;4995241;28;20209;-34
2024/01/17 01:48:50;;;;;;;10.23;5.80;;;3.10;97.40;;;;;;4995133;28;20206;-34
2024/01/17 01:51:16;;;;;;;8.38;5.85;;;3.10;97.40;;;;;;4998086;28;20222;-39
2024/01/17 01:53:47;;;;;;;7.55;5.18;;;3.10;97.40;;;;;;4980744;28;20227;-40
2024/01/17 01:56:18;;;;;;;10.55;6.15;;;3.10;97.40;;;;;;5000153;28;20237;-37
2024/01/17 01:58:46;;;;;;;7.15;5.80;;;3.10;97.40;;;;;;4997607;28;20748;-38
2024/01/17 02:01:15;;;;;;;9.20;6.25;;;3.10;97.40;;;;;;4984607;28;20225;-37
2024/01/17 02:03:43;;;;;;;8.32;6.10;;;3.10;97.40;;;;;;4997929;28;20650;-33
2024/01/17 02:06:13;;;;;;;5.72;4.82;;;3.10;97.40;;;;;;4983801;28;20876;-37
2024/01/17 02:08:41;;;;;;;8.23;5.95;;;3.10;97.40;;;;;;5000110;28;20255;-37
2024/01/17 02:11:09;;;;;;;6.53;5.10;;;3.10;97.40;;;;;;5000978;28;20233;-39
2024/01/17 02:13:35;;;;;;;6.30;5.28;;;3.00;97.40;;;;;;5001367;28;20189;-38
2024/01/17 02:16:02;;;;;;;9.82;6.03;;;3.00;97.40;;;;;;5001431;28;20209;-35
2024/01/17 02:18:30;;;;;;;8.35;5.45;;;3.00;97.40;;;;;;5003392;28;20291;-37
2024/01/17 02:20:56;;;;;;;6.20;5.60;;;3.10;97.50;;;;;;5001474;28;20296;-34
2024/01/17 02:23:26;;;;;;;7.15;5.45;;;3.10;97.40;;;;;;5001095;28;20523;-34
2024/01/17 02:25:55;;;;;;;8.90;5.90;;;3.00;97.40;;;;;;4982732;28;20252;-39
2024/01/17 02:28:24;;;;;;;8.65;6.53;;;3.00;97.30;;;;;;5000738;28;20228;-36
2024/01/17 02:30:53;;;;;;;6.68;5.45;;;3.10;97.30;;;;;;4983527;28;20196;-40
2024/01/17 02:33:19;;;;;;;7.50;5.50;;;3.10;97.30;;;;;;5018104;28;20207;-34
2024/01/17 02:35:48;;;;;;;11.02;7.03;;;3.10;97.30;;;;;;5023024;28;20271;-37
2024/01/17 02:38:14;;;;;;;9.60;5.30;;;3.10;97.30;;;;;;5025603;28;20205;-40
2024/01/17 02:40:42;;;;;;;6.45;5.13;;;3.10;97.30;;;;;;5024119;28;20248;-40
2024/01/17 02:43:08;;;;;;;7.97;5.35;;;3.00;97.20;;;;;;5005373;28;20189;-39
2024/01/17 02:45:34;;;;;;;8.23;5.57;;;3.00;97.20;;;;;;5021311;28;20185;-37
2024/01/17 02:48:03;;;;;;;8.30;5.32;;;3.00;97.10;;;;;;5006440;28;20486;-38
2024/01/17 02:50:32;;;;;;;9.52;6.07;;;3.00;97.10;;;;;;5024227;28;20216;-40
2024/01/17 02:52:58;;;;;;;8.40;6.05;;;3.00;97.10;;;;;;5023692;28;20684;-40
2024/01/17 02:55:26;;;;;;;6.15;5.55;;;3.00;97.10;;;;;;5021052;28;20559;-38
2024/01/17 02:57:55;;;;;;;7.32;6.38;;;3.00;97.20;;;;;;5021992;28;20189;-39
2024/01/17 03:00:24;;;;;;;9.15;7.35;;;3.00;97.10;;;;;;5025902;28;20816;-36
2024/01/17 03:02:50;;;;;;;7.22;5.75;;;3.00;97.10;;;;;;5022707;28;20199;-34
2024/01/17 03:05:16;;;;;;;8.10;6.10;;;3.00;97.00;;;;;;5024579;28;20181;-37
2024/01/17 03:07:42;;;;;;;5.88;5.28;;;3.00;97.00;;;;;;5024042;28;20985;-39
2024/01/17 03:10:11;;;;;;;6.07;5.15;;;3.00;97.00;;;;;;5025156;28;20224;-35
2024/01/17 03:12:40;;;;;;;6.63;5.80;;;3.00;97.00;;;;;;5025875;28;20232;-38
2024/01/17 03:15:07;;;;;;;9.23;5.70;;;3.00;97.00;;;;;;5008875;28;20204;-37
2024/01/17 03:17:36;;;;;;;10.82;6.65;;;3.00;96.90;;;;;;5022719;28;20188;-37
2024/01/17 03:20:04;;;;;;;10.00;5.30;;;2.90;96.90;;;;;;5004007;28;21013;-37
2024/01/17 03:22:35;;;;;;;6.40;5.70;;;2.90;97.00;;;;;;5006470;28;20196;-37
2024/01/17 03:25:01;;;;;;;13.20;6.90;;;3.00;97.00;;;;;;5023960;28;20217;-36
2024/01/17 03:27:29;;;;;;;7.50;5.95;;;2.90;97.00;;;;;;4987657;28;20741;-39
2024/01/17 03:29:55;;;;;;;10.90;6.45;;;2.90;97.00;;;;;;5021511;28;20208;-36
2024/01/17 03:32:22;;;;;;;8.60;7.00;;;2.90;97.00;;;;;;5079889;23;20230;-84
2024/01/17 03:34:51;;;;;;;8.05;6.65;;;2.90;97.00;;;;;;5068677;28;20454;-85
2024/01/17 03:37:19;;;;;;;7.32;5.88;;;2.90;96.90;;;;;;5069330;28;20187;-85
2024/01/17 03:39:46;;;;;;;8.70;5.80;;;2.90;96.90;;;;;;5068825;28;20189;-85
2024/01/17 03:42:15;;;;;;;8.25;6.07;;;2.90;96.90;;;;;;5032903;28;20487;-84
2024/01/17 03:44:44;;;;;;;8.73;6.32;;;2.90;96.90;;;;;;5044444;28;20184;-84
2024/01/17 03:47:11;;;;;;;8.52;6.00;;;3.00;96.90;;;;;;5039844;28;20273;-85
2024/01/17 03:49:38;;;;;;;6.68;5.93;;;2.90;96.80;;;;;;5048060;28;20187;-84
2024/01/17 03:52:06;;;;;;;8.25;6.72;;;2.90;96.90;;;;;;5042061;28;20216;-85
2024/01/17 03:54:36;;;;;;;8.18;6.28;;;2.90;96.90;;;;;;5030603;28;20188;-84
2024/01/17 03:57:02;;;;;;;8.35;7.22;;;2.90;96.90;;;;;;5047526;28;21054;-85
2024/01/17 03:59:29;;;;;;;8.35;6.35;;;2.90;96.90;;;;;;5047715;28;20607;-85
2024/01/17 04:01:55;;;;;;;9.13;6.75;;;2.90;96.90;;;;;;5047854;28;20305;-85
2024/01/17 04:04:21;;;;;;;8.77;6.63;;;2.90;96.90;;;;;;5047541;28;20194;-84
2024/01/17 04:06:48;;;;;;;8.15;6.18;;;2.90;96.80;;;;;;5047244;28;20183;-85
2024/01/17 04:09:14;;;;;;;6.60;6.00;;;2.90;96.90;;;;;;5030222;28;20199;-84
2024/01/17 04:11:40;;;;;;;9.13;6.95;;;2.90;96.90;;;;;;5032482;28;20223;-84
2024/01/17 04:14:07;;;;;;;9.15;6.88;;;2.90;96.90;;;;;;5028282;28;20184;-85
2024/01/17 04:16:35;;;;;;;8.70;6.97;;;2.90;96.80;;;;;;5028461;28;20191;-84
2024/01/17 04:19:02;;;;;;;9.73;6.82;;;2.90;96.80;;;;;;5026817;28;20183;-84
2024/01/17 04:21:28;;;;;;;8.93;6.72;;;2.80;96.80;;;;;;5012649;28;20264;-84
2024/01/17 04:23:55;;;;;;;8.55;7.13;;;2.90;96.80;;;;;;5026925;28;20249;-85
2024/01/17 04:26:26;;;;;;;8.20;5.90;;;2.80;96.80;;;;;;5044205;28;20172;-84
2024/01/17 04:28:53;;;;;;;9.60;6.05;;;2.90;96.80;;;;;;5044965;28;20509;-85
2024/01/17 04:31:30;;;;;;;9.00;6.70;;;2.80;96.80;;;;;;5048786;28;20327;-84
2024/01/17 04:33:58;;;;;;;9.25;6.35;;;2.90;96.80;;;;;;5047350;28;20744;-85
2024/01/17 04:36:31;;;;;;;8.70;6.22;;;2.90;96.80;;;;;;5027240;28;20654;-84
2024/01/17 04:38:57;;;;;;;9.15;6.28;;;2.90;96.80;;;;;;5011478;28;20191;-85
2024/01/17 04:41:24;;;;;;;8.60;6.40;;;2.80;96.70;;;;;;5032349;28;20219;-84
2024/01/17 04:43:49;;;;;;;7.25;6.55;;;2.80;96.80;;;;;;5046961;28;20183;-85
2024/01/17 04:46:17;;;;;;;9.30;7.20;;;2.80;96.70;;;;;;5044126;28;20210;-84
2024/01/17 04:48:46;;;;;;;9.63;6.80;;;2.80;96.70;;;;;;5047705;28;20449;-84
2024/01/17 04:51:12;;;;;;;7.72;6.05;;;2.80;96.60;;;;;;5032354;28;20225;-86
2024/01/17 04:53:41;;;;;;;9.32;6.13;;;2.80;96.60;;;;;;5031995;28;20683;-85
2024/01/17 04:56:09;;;;;;;9.13;7.07;;;2.80;96.60;;;;;;5046805;28;20693;-85
2024/01/17 04:58:36;;;;;;;7.07;5.97;;;2.80;96.70;;;;;;5046991;28;20294;-85
2024/01/17 05:01:05;;;;;;;9.85;6.22;;;2.80;96.70;;;;;;5046888;28;20222;-85
2024/01/17 05:03:33;;;;;;;9.35;6.70;;;2.80;96.70;;;;;;5047117;28;20206;-85
2024/01/17 05:06:00;;;;;;;8.38;5.90;;;2.80;96.70;;;;;;5046290;28;20272;-85
2024/01/17 05:08:30;;;;;;;11.75;7.00;;;2.80;96.70;;;;;;5046043;28;20649;-85
2024/01/17 05:10:56;;;;;;;8.48;6.75;;;2.80;96.60;;;;;;5054515;28;20287;-86
2024/01/17 05:13:22;;;;;;;9.05;6.68;;;2.80;96.60;;;;;;5025949;28;20183;-85
2024/01/17 05:15:49;;;;;;;8.35;6.85;;;2.80;96.60;;;;;;5009944;28;20637;-85
2024/01/17 05:18:15;;;;;;;10.35;7.22;;;2.80;96.60;;;;;;5026521;28;20183;-85
2024/01/17 05:20:42;;;;;;;9.43;6.60;;;2.80;96.60;;;;;;5026842;28;20203;-85
2024/01/17 05:23:11;;;;;;;8.75;6.95;;;2.80;96.60;;;;;;5026621;28;20686;-85
2024/01/17 05:25:37;;;;;;;11.82;6.57;;;2.80;96.60;;;;;;5026127;28;20323;-88
2024/01/17 05:28:06;;;;;;;10.40;6.65;;;2.80;96.50;;;;;;5010710;28;20184;-87
2024/01/17 05:30:34;;;;;;;7.38;6.07;;;2.80;96.50;;;;;;5027218;28;20297;-87
2024/01/17 05:33:00;;;;;;;14.53;9.73;;;2.70;96.50;;;;;;5023958;28;20701;-86
2024/01/17 05:35:28;;;;;;;10.93;8.23;;;2.70;96.50;;;;;;5047591;28;20437;-87
2024/01/17 05:37:54;;;;;;;9.02;6.88;;;2.70;96.40;;;;;;5048155;28;20206;-86
2024/01/17 05:40:25;;;;;;;9.73;7.15;;;2.80;96.50;;;;;;5043192;28;21006;-85
2024/01/17 05:42:54;;;;;;;11.68;8.10;;;2.70;96.40;;;;;;5041122;28;20242;-85
2024/01/17 05:45:20;;;;;;;11.60;7.65;;;2.70;96.40;;;;;;5039082;28;20182;-85
2024/01/17 05:47:46;;;;;;;9.03;7.63;;;2.70;96.40;;;;;;5038972;28;20194;-84
2024/01/17 05:50:14;;;;;;;7.70;6.93;;;2.70;96.40;;;;;;5039751;28;21157;-86
2024/01/17 05:52:42;;;;;;;9.52;7.15;;;2.70;96.40;;;;;;5038468;28;20179;-85
2024/01/17 05:55:09;;;;;;;12.63;6.72;;;2.70;96.40;;;;;;5049186;28;20178;-85
2024/01/17 05:57:36;;;;;;;10.85;7.40;;;2.70;96.40;;;;;;5047129;28;20205;-85
2024/01/17 06:00:10;;;;;;;13.32;8.32;;;2.70;96.50;;;;;;5037520;28;20733;-86
2024/01/17 06:02:37;;;;;;;10.57;8.10;;;2.70;96.40;;;;;;5062767;28;20175;-85
2024/01/17 06:05:04;;;;;;;10.32;7.93;;;2.70;96.30;;;;;;5043542;28;20184;-85
2024/01/17 06:07:31;;;;;;;11.32;7.25;;;2.70;96.30;;;;;;5028477;28;20188;-84
2024/01/17 06:09:58;;;;;;;8.52;7.65;;;2.70;96.30;;;;;;5028667;28;20281;-85
2024/01/17 06:12:24;;;;;;;10.82;7.93;;;2.70;96.30;;;;;;5046188;28;20868;-85
2024/01/17 06:14:50;;;;;;;11.27;7.97;;;2.70;96.30;;;;;;5045275;28;20182;-85
2024/01/17 06:17:17;;;;;;;10.40;6.93;;;2.70;96.20;;;;;;5034873;28;20213;-85
2024/01/17 06:19:43;;;;;;;10.88;8.25;;;2.70;96.20;;;;;;5045355;28;20179;-84
2024/01/17 06:22:09;;;;;;;11.15;8.60;;;2.70;96.20;;;;;;5035090;28;20772;-85
2024/01/17 06:24:35;;;;;;;11.35;7.50;;;2.70;96.30;;;;;;5028438;28;20234;-84
2024/01/17 06:27:02;;;;;;;9.10;6.85;;;2.70;96.30;;;;;;5030517;28;20192;-84
2024/01/17 06:29:30;;;;;;;13.77;8.27;;;2.70;96.30;;;;;;5048963;28;20172;-84
2024/01/17 06:31:57;;;;;;;10.85;7.85;;;2.70;96.20;;;;;;5041186;28;20226;-85
2024/01/17 06:34:23;;;;;;;11.13;8.07;;;2.70;96.20;;;;;;5042066;28;20210;-84
2024/01/17 06:36:49;;;;;;;10.27;7.50;;;2.70;96.20;;;;;;5030523;28;20195;-84
2024/01/17 06:39:16;;;;;;;10.05;7.18;;;2.70;96.20;;;;;;5035517;28;20183;-85
2024/01/17 06:41:45;;;;;;;11.35;8.73;;;2.60;96.10;;;;;;5029262;28;20295;-85
2024/01/17 06:44:12;;;;;;;11.32;7.30;;;2.70;96.20;;;;;;5020381;28;20216;-84
2024/01/17 06:46:38;;;;;;;12.93;8.38;;;2.70;96.20;;;;;;5021516;28;20196;-84
2024/01/17 06:49:04;;;;;;;9.50;7.53;;;2.70;96.20;;;;;;5028829;28;20268;-85
2024/01/17 06:51:30;;;;;;;14.07;8.80;;;2.60;96.10;;;;;;5017022;28;20905;-85
2024/01/17 06:53:56;;;;;;;12.40;8.45;;;2.60;96.10;;;;;;5034929;28;20675;-85
2024/01/17 06:56:22;;;;;;;10.35;7.50;;;2.60;96.10;;;;;;5037918;28;20912;-84
2024/01/17 06:58:48;;;;;;;11.85;6.53;;;2.60;96.10;;;;;;5033124;28;20570;-85
2024/01/17 07:01:14;;;;;;;9.23;7.22;;;2.60;96.10;;;;;;5042201;28;20307;-85
2024/01/17 07:03:40;;;;;;;10.53;6.70;;;2.60;96.10;;;;;;5045249;28;20333;-84
2024/01/17 07:06:08;;;;;;;10.30;7.60;;;2.60;96.10;;;;;;5039319;28;21070;-84
2024/01/17 07:08:37;;;;;;;10.10;8.10;;;2.60;96.10;;;;;;5032462;28;20289;-85
2024/01/17 07:11:03;;;;;;;9.73;7.33;;;2.60;96.10;;;;;;5043781;28;20283;-85
2024/01/17 07:13:29;;;;;;;10.75;7.50;;;2.60;96.10;;;;;;5042491;28;20465;-85
2024/01/17 07:15:55;;;;;;;11.82;7.60;;;2.60;96.40;;;;;;5043534;28;20202;-84
2024/01/17 07:18:22;;;;;;;8.95;7.13;;;2.60;96.10;;;;;;5042373;28;20341;-84
2024/01/17 07:20:50;;;;;;;9.20;6.72;;;2.60;96.10;;;;;;5035293;28;20243;-85
2024/01/17 07:23:20;;;;;;;11.43;7.55;;;2.60;96.50;;;;;;5017119;28;20202;-84
2024/01/17 07:25:47;;;;;;;8.25;6.70;;;2.60;96.10;;;;;;5033458;28;20207;-84
2024/01/17 07:28:19;;;;;;;9.32;7.43;;;2.60;96.10;;;;;;5036592;28;20245;-85
2024/01/17 07:30:45;;;;;;;15.15;8.43;;;2.60;96.10;;;;;;5063338;28;20210;-85
2024/01/17 07:33:11;;;;;;;9.63;7.27;;;2.60;96.10;;;;;;5034455;28;20601;-84
2024/01/17 07:35:37;;;;;;;12.18;7.25;;;2.60;96.20;;;;;;5026168;28;20441;-84
2024/01/17 07:38:03;;;;;;;10.85;7.32;;;2.60;96.20;;;;;;5029110;28;20280;-84
2024/01/17 07:40:29;;;;;;;8.00;7.07;;;2.60;96.20;;;;;;5040119;28;20245;-84
2024/01/17 07:42:55;;;;;;;8.23;6.93;;;2.60;96.10;;;;;;5038925;28;20228;-84
2024/01/17 07:45:22;;;;;;;8.60;7.13;;;2.60;96.10;;;;;;5030727;28;20190;-84
2024/01/17 07:47:48;;;;;;;8.68;6.95;;;2.60;96.10;;;;;;5055582;28;20430;-84
2024/01/17 07:50:14;;;;;;;8.57;6.85;;;2.60;96.10;;;;;;5027477;28;20203;-85
2024/01/17 07:52:40;;;;;;;10.43;7.03;;;2.60;96.20;;;;;;5033029;28;20662;-84
2024/01/17 07:55:07;;;;;;;10.80;7.30;;;2.60;96.10;;;;;;5046097;28;20454;-84
2024/01/17 07:57:33;;;;;;;10.43;6.90;;;2.50;96.10;;;;;;5030284;28;20240;-84
2024/01/17 07:59:59;;;;;;;10.70;7.50;;;2.50;96.10;;;;;;5046386;28;20442;-84
2024/01/17 08:02:25;;;;;;;9.07;7.20;;;2.60;96.20;;;;;;5038844;28;20453;-85
2024/01/17 08:04:53;;;;;;;10.20;7.15;;;2.60;96.20;;;;;;5030959;28;20200;-84
2024/01/17 08:07:24;;;;;;;9.65;6.70;;;2.60;96.20;;;;;;5037294;28;20179;-85
2024/01/17 08:09:52;;;;;;;9.43;7.32;;;2.60;96.20;;;;;;5026343;28;20210;-86
2024/01/17 08:12:19;;;;;;;7.63;6.53;;;2.60;96.20;;;;;;5034920;28;20218;-85
2024/01/17 08:14:46;;;;;;;11.32;8.00;;;2.60;96.30;;;;;;5039823;28;20221;-84
2024/01/17 08:17:13;;;;;;;8.40;6.82;;;2.60;96.20;;;;;;5038975;28;20234;-84
2024/01/17 08:19:41;;;;;;;11.13;7.10;;;2.60;96.30;;;;;;5026665;28;20271;-84
2024/01/17 08:22:07;;;;;;;9.13;6.63;;;2.50;96.20;;;;;;5035328;28;20227;-84
2024/01/17 08:24:33;;;;;;;10.13;6.93;;;2.60;96.20;;;;;;5034990;28;20298;-84
2024/01/17 08:26:59;;;;;;;8.00;6.07;;;2.60;96.20;;;;;;5027602;28;20198;-84
2024/01/17 08:29:26;;;;;;;10.13;7.10;;;2.60;96.20;;;;;;5040731;28;20253;-84
2024/01/17 08:31:52;;;;;;;10.90;6.93;;;2.60;96.30;;;;;;5031440;28;21093;-84
2024/01/17 08:34:20;;;;;;;9.82;6.57;;;2.60;96.20;;;;;;5050711;28;20278;-84
2024/01/17 08:36:47;;;;;;;10.10;6.30;;;2.60;96.20;;;;;;5031414;28;20935;-84
2024/01/17 08:39:16;;;;;;;10.05;6.60;;;2.60;96.20;;;;;;5020266;28;20313;-84
2024/01/17 08:41:45;;;;;;;8.82;6.35;;;2.50;96.20;;;;;;5031708;28;20227;-84
2024/01/17 08:44:15;;;;;;;11.38;7.60;;;2.60;96.20;;;;;;5041525;28;20977;-84
2024/01/17 08:46:45;;;;;;;6.82;6.13;;;2.60;96.20;;;;;;5035474;28;20196;-84
2024/01/17 08:49:11;;;;;;;7.30;6.43;;;2.60;96.20;;;;;;5038692;28;20277;-85
2024/01/17 08:51:37;;;;;;;11.30;6.93;;;2.60;96.30;;;;;;5022596;28;20809;-84
2024/01/17 08:54:04;;;;;;;11.60;6.70;;;2.60;96.30;;;;;;5045417;28;20192;-84
2024/01/17 08:56:32;;;;;;;10.50;6.85;;;2.60;96.20;;;;;;5024373;28;20959;-84
2024/01/17 08:59:02;;;;;;;10.40;7.05;;;2.60;96.30;;;;;;5023574;28;20215;-83
2024/01/17 09:01:28;;;;;;;9.48;6.72;;;2.50;96.20;;;;;;5036443;28;20376;-84
2024/01/17 09:03:55;;;;;;;11.70;6.72;;;2.50;96.20;;;;;;5022753;28;20202;-84
2024/01/17 09:06:21;;;;;;;10.32;6.68;;;2.50;96.20;;;;;;5041498;28;20208;-84
2024/01/17 09:08:48;;;;;;;7.85;6.30;;;2.60;96.30;;;;;;5035268;28;20246;-84
2024/01/17 09:11:14;;;;;;;11.52;7.15;;;2.50;96.30;;;;;;5040416;28;20446;-84
2024/01/17 09:13:42;;;;;;;10.70;6.95;;;2.50;96.30;;;;;;5030114;28;20690;-84
2024/01/17 09:16:08;;;;;;;7.68;6.03;;;2.60;96.30;;;;;;5043391;28;20192;-84
2024/01/17 09:18:34;;;;;;;7.15;5.93;;;2.60;96.40;;;;;;5036029;28;20234;-85
2024/01/17 09:21:01;;;;;;;7.13;5.72;;;2.60;96.30;;;;;;5026495;28;20656;-84
2024/01/17 09:23:27;;;;;;;9.88;6.20;;;2.60;96.40;;;;;;5029929;28;20195;-84
2024/01/17 09:25:55;;;;;;;8.60;5.87;;;2.60;96.30;;;;;;5033077;28;20182;-84
2024/01/17 09:28:22;;;;;;;8.38;6.32;;;2.60;96.30;;;;;;5034532;28;20462;-84
2024/01/17 09:30:48;;;;;;;12.45;6.13;;;2.60;96.20;;;;;;5022865;28;20637;-84
2024/01/17 09:33:16;;;;;;;7.63;6.13;;;2.60;96.30;;;;;;5037828;23;20232;-32
2024/01/17 09:35:44;;;;;;;7.63;5.90;;;2.60;96.30;;;;;;5045993;28;20310;-34
2024/01/17 09:38:12;;;;;;;10.48;6.50;;;2.60;96.30;;;;;;5046253;28;20184;-35
2024/01/17 09:40:39;;;;;;;10.35;6.30;;;2.60;96.30;;;;;;5050212;28;20227;-36
2024/01/17 09:43:06;;;;;;;8.35;6.95;;;2.60;96.20;;;;;;5034694;28;20312;-36
2024/01/17 09:45:33;;;;;;;8.88;7.20;;;2.60;96.20;;;;;;5044678;28;20183;-33
2024/01/17 09:48:02;;;;;;;9.30;6.18;;;2.60;96.20;;;;;;5044023;28;20180;-31
2024/01/17 09:50:28;;;;;;;10.40;6.70;;;2.60;96.20;;;;;;5047029;28;20223;-31
2024/01/17 09:52:57;;;;;;;9.48;6.38;;;2.60;96.20;;;;;;5048454;28;20184;-34
2024/01/17 09:55:25;;;;;;;10.60;6.25;;;2.60;96.30;;;;;;5049756;28;20188;-36
2024/01/17 09:57:57;;;;;;;7.40;5.65;;;2.60;96.20;;;;;;5048556;28;20283;-32
2024/01/17 10:00:27;;;;;;;8.48;6.05;;;2.60;96.20;;;;;;5043643;28;20206;-31
2024/01/17 10:02:58;;;;;;;10.40;6.55;;;2.60;96.20;;;;;;5048400;28;20236;-31
2024/01/17 10:05:26;;;;;;;10.30;6.70;;;2.60;96.20;;;;;;5052097;28;20261;-33
2024/01/17 10:07:54;;;;;;;8.50;6.13;;;2.60;96.20;;;;;;5049316;28;20211;-36
2024/01/17 10:10:21;;;;;;;8.10;5.85;;;2.60;96.20;;;;;;5046288;28;20204;-31
2024/01/17 10:12:47;;;;;;;6.90;6.20;;;2.60;96.20;;;;;;5046424;28;20192;-33
2024/01/17 10:15:14;;;;;;;9.00;5.93;;;2.70;96.20;;;;;;5048545;28;20188;-38
2024/01/17 10:17:40;;;;;;;9.52;5.90;;;2.60;96.20;;;;;;5054596;28;20252;-32
2024/01/17 10:20:12;;;;;;;9.80;6.40;;;2.60;96.20;;;;;;5047860;28;20242;-32
2024/01/17 10:22:39;;;;;;;8.23;6.93;;;2.70;96.30;;;;;;5070118;28;20799;-34
2024/01/17 10:25:05;;;;;;;9.00;5.32;;;2.70;96.40;;;;;;5057443;28;20203;-35
2024/01/17 10:27:36;;;;;;;8.80;6.35;;;2.70;96.30;;;;;;5050688;28;20237;-33
2024/01/17 10:30:04;;;;;;;8.75;5.78;;;2.70;96.20;;;;;;5051944;28;20307;-38
2024/01/17 10:32:31;;;;;;;7.32;4.80;;;2.70;96.20;;;;;;5046857;28;20619;-32
2024/01/17 10:35:00;;;;;;;9.85;6.25;;;2.70;96.30;;;;;;5055015;28;20279;-30
2024/01/17 10:37:28;;;;;;;7.53;5.45;;;2.70;96.30;;;;;;5050564;28;20184;-34
2024/01/17 10:40:18;;;;;;;9.10;6.83;;;2.70;96.30;;;;;;5057070;28;20214;-30
2024/01/17 10:42:44;;;;;;;8.30;6.28;;;2.70;96.40;;;;;;5047161;28;20429;-32
2024/01/17 10:45:20;;;;;;;8.40;6.20;;;2.70;96.40;;;;;;5045995;28;20180;-34
2024/01/17 10:47:48;;;;;;;9.38;6.25;;;2.70;96.40;;;;;;5054467;28;20449;-35
2024/01/17 10:50:18;;;;;;;10.27;6.45;;;2.70;96.70;;;;;;5051042;28;20865;-36
2024/01/17 10:52:50;;;;;;;9.65;6.65;;;2.70;96.40;;;;;;5048385;28;20204;-36
2024/01/17 10:55:20;;;;;;;8.15;5.35;;;2.70;96.30;;;;;;5046601;28;20193;-31
2024/01/17 10:57:54;;;;;;;6.70;5.85;;;2.70;96.40;;;;;;5043584;28;21095;-33
2024/01/17 11:00:26;;;;;;;7.13;6.18;;;2.70;96.40;;;;;;5046541;28;20236;-38
2024/01/17 11:02:52;;;;;;;9.57;5.90;;;2.80;96.50;;;;;;5046048;28;20185;-34
2024/01/17 11:05:21;;;;;;;8.30;5.75;;;2.70;96.40;;;;;;5053412;28;20187;-31
2024/01/17 11:07:48;;;;;;;8.68;6.05;;;2.70;96.40;;;;;;5050168;28;20180;-35
2024/01/17 11:10:17;;;;;;;8.45;5.45;;;2.70;96.40;;;;;;5048909;28;20200;-31
2024/01/17 11:12:45;;;;;;;8.70;6.20;;;2.80;96.40;;;;;;5050860;28;20798;-33
2024/01/17 11:15:12;;;;;;;9.50;6.78;;;2.70;96.40;;;;;;5050699;28;20969;-33
2024/01/17 11:17:40;;;;;;;8.40;6.50;;;2.70;96.40;;;;;;5059552;28;20237;-33
2024/01/17 11:20:11;;;;;;;10.57;5.40;;;2.80;96.50;;;;;;5048279;28;20492;-39
2024/01/17 11:22:39;;;;;;;6.57;5.63;;;2.80;96.50;;;;;;5053536;28;20203;-40
2024/01/17 11:25:17;;;;;;;12.60;6.13;;;2.70;96.50;;;;;;5053908;28;20291;-36
2024/01/17 11:28:16;;;;;;;9.30;5.80;;;2.80;96.60;;;;;;5046218;28;20184;-38
2024/01/17 11:31:11;;;;;;;7.45;5.68;;;2.80;96.50;;;;;;5046116;28;20204;-39
2024/01/17 11:33:38;;;;;;;8.45;6.18;;;2.80;96.40;;;;;;5065530;28;20654;-40
2024/01/17 11:36:05;;;;;;;7.95;6.10;;;2.80;96.40;;;;;;5055325;28;20215;-41
2024/01/17 11:38:32;;;;;;;6.43;5.68;;;2.80;96.50;;;;;;5070028;28;20273;-38
2024/01/17 11:41:08;;;;;;;11.80;6.30;;;2.80;96.50;;;;;;5055042;28;20219;-40
2024/01/17 11:43:38;;;;;;;6.75;5.28;;;2.80;96.40;;;;;;5055371;28;20227;-39
2024/01/17 11:46:10;;;;;;;7.30;6.03;;;2.80;96.50;;;;;;5072743;28;20221;-40
2024/01/17 11:48:38;;;;;;;12.23;6.30;;;2.80;96.50;;;;;;5068370;28;20198;-40
2024/01/17 11:51:15;;;;;;;9.57;7.03;;;2.80;96.50;;;;;;5057898;28;20564;-41
2024/01/17 11:53:51;;;;;;;8.45;6.70;;;2.80;96.40;;;;;;5069465;28;20791;-37
2024/01/17 11:56:21;;;;;;;9.18;6.20;;;2.80;96.50;;;;;;5072438;28;20184;-39
2024/01/17 11:58:57;;;;;;;10.10;6.90;;;2.80;96.60;;;;;;5067571;28;20894;-41
2024/01/17 12:01:26;;;;;;;6.85;5.88;;;2.80;96.50;;;;;;5052637;28;20225;-39
2024/01/17 12:03:52;;;;;;;8.80;7.22;;;2.80;96.50;;;;;;5064522;28;20192;-39
2024/01/17 12:06:22;;;;;;;8.57;6.10;;;2.80;96.50;;;;;;5066062;28;20693;-39
2024/01/17 12:08:54;;;;;;;7.78;6.22;;;2.80;96.50;;;;;;5067290;28;21076;-41
2024/01/17 12:11:23;;;;;;;13.75;6.68;;;2.90;96.60;;;;;;5076064;28;20188;-40
2024/01/17 12:13:52;;;;;;;8.10;6.40;;;2.80;96.60;;;;;;5053572;28;20184;-40
2024/01/17 12:16:23;;;;;;;8.00;6.45;;;2.80;96.80;;;;;;5057105;28;20227;-40
2024/01/17 12:18:59;;;;;;;8.80;6.30;;;2.80;96.90;;;;;;5067964;28;20207;-40
2024/01/17 12:21:26;;;;;;;11.75;7.00;;;2.80;96.90;;;;;;5052954;28;20206;-39
2024/01/17 12:23:52;;;;;;;12.05;7.60;;;2.90;96.90;;;;;;5075199;28;20295;-35
2024/01/17 12:26:19;;;;;;;9.20;6.75;;;2.90;96.80;;;;;;5074322;28;20199;-35
2024/01/17 12:28:46;;;;;;;10.32;7.68;;;2.90;96.70;;;;;;5062779;28;20265;-40
2024/01/17 12:31:12;;;;;;;10.85;6.68;;;2.90;96.70;;;;;;5069529;28;20233;-40
2024/01/17 12:33:38;;;;;;;8.13;6.45;;;2.90;96.60;;;;;;5053488;28;20214;-34
2024/01/17 12:36:06;;;;;;;8.88;6.72;;;2.90;96.60;;;;;;5071281;28;20242;-38
2024/01/17 12:38:34;;;;;;;8.82;6.75;;;2.90;96.60;;;;;;5049277;28;20718;-35
2024/01/17 12:41:01;;;;;;;12.40;7.90;;;3.00;96.70;;;;;;5050922;28;20228;-36
2024/01/17 12:43:32;;;;;;;11.15;5.82;;;3.00;96.70;;;;;;5067334;28;20454;-40
2024/01/17 12:46:05;;;;;;;9.88;7.70;;;3.00;96.70;;;;;;5054341;28;20239;-40
2024/01/17 12:48:36;;;;;;;9.35;6.90;;;3.00;96.70;;;;;;5070593;28;20183;-40
2024/01/17 12:51:09;;;;;;;8.00;6.40;;;3.00;96.70;;;;;;5051894;28;20294;-34
2024/01/17 12:53:39;;;;;;;9.88;7.43;;;3.00;96.70;;;;;;5053298;28;20282;-34
2024/01/17 12:56:06;;;;;;;8.70;6.50;;;2.90;96.60;;;;;;5056232;28;21007;-35